sensor_id;sensor_type;location;lat;lon;timestamp;temperature;humidity
13221;DHT22;6675;48.128;11.478;2024-02-15T00:01:21;7.80;90.20
13221;DHT22;6675;48.128;11.478;2024-02-15T00:03:46;6.70;89.00
13221;DHT22;6675;48.128;11.478;2024-02-15T00:06:12;7.40;89.90
13221;DHT22;6675;48.128;11.478;2024-02-15T00:08:38;7.40;89.20
13221;DHT22;6675;48.128;11.478;2024-02-15T00:11:03;7.20;88.40
13221;DHT22;6675;48.128;11.478;2024-02-15T00:13:29;7.10;89.00
13221;DHT22;6675;48.128;11.478;2024-02-15T00:15:55;6.50;89.30
13221;DHT22;6675;48.128;11.478;2024-02-15T00:18:21;7.50;88.80
13221;DHT22;6675;48.128;11.478;2024-02-15T00:20:46;7.30;90.00
13221;DHT22;6675;48.128;11.478;2024-02-15T00:23:12;7.20;89.00
13221;DHT22;6675;48.128;11.478;2024-02-15T00:25:37;7.20;89.40
13221;DHT22;6675;48.128;11.478;2024-02-15T00:28:03;7.10;90.50
13221;DHT22;6675;48.128;11.478;2024-02-15T00:30:29;6.90;90.10
13221;DHT22;6675;48.128;11.478;2024-02-15T00:32:55;7.50;91.10
13221;DHT22;6675;48.128;11.478;2024-02-15T00:35:21;7.20;89.40
13221;DHT22;6675;48.128;11.478;2024-02-15T00:37:46;7.10;90.10
13221;DHT22;6675;48.128;11.478;2024-02-15T00:40:12;7.90;90.40
13221;DHT22;6675;48.128;11.478;2024-02-15T00:42:38;7.10;89.80
13221;DHT22;6675;48.128;11.478;2024-02-15T00:45:04;6.30;90.00
13221;DHT22;6675;48.128;11.478;2024-02-15T00:47:30;6.80;90.40
13221;DHT22;6675;48.128;11.478;2024-02-15T00:49:56;6.80;89.80
13221;DHT22;6675;48.128;11.478;2024-02-15T00:52:22;6.10;90.00
13221;DHT22;6675;48.128;11.478;2024-02-15T00:54:53;7.10;90.20
13221;DHT22;6675;48.128;11.478;2024-02-15T00:57:19;6.90;90.40
13221;DHT22;6675;48.128;11.478;2024-02-15T00:59:44;6.40;90.70
13221;DHT22;6675;48.128;11.478;2024-02-15T01:02:10;6.70;91.20
13221;DHT22;6675;48.128;11.478;2024-02-15T01:07:01;5.90;91.90
13221;DHT22;6675;48.128;11.478;2024-02-15T01:09:27;6.30;92.10
13221;DHT22;6675;48.128;11.478;2024-02-15T01:11:52;6.50;91.70
13221;DHT22;6675;48.128;11.478;2024-02-15T01:14:18;6.20;91.60
13221;DHT22;6675;48.128;11.478;2024-02-15T01:16:44;6.70;91.70
13221;DHT22;6675;48.128;11.478;2024-02-15T01:19:09;6.30;91.50
13221;DHT22;6675;48.128;11.478;2024-02-15T01:21:35;6.40;91.80
13221;DHT22;6675;48.128;11.478;2024-02-15T01:24:00;6.50;92.00
13221;DHT22;6675;48.128;11.478;2024-02-15T01:26:27;6.60;92.50
13221;DHT22;6675;48.128;11.478;2024-02-15T01:28:52;6.10;92.40
13221;DHT22;6675;48.128;11.478;2024-02-15T01:31:18;6.30;92.80
13221;DHT22;6675;48.128;11.478;2024-02-15T01:33:44;6.10;92.80
13221;DHT22;6675;48.128;11.478;2024-02-15T01:36:16;5.70;93.20
13221;DHT22;6675;48.128;11.478;2024-02-15T01:38:42;5.70;93.80
13221;DHT22;6675;48.128;11.478;2024-02-15T01:41:08;6.20;94.90
13221;DHT22;6675;48.128;11.478;2024-02-15T01:43:35;5.90;94.90
13221;DHT22;6675;48.128;11.478;2024-02-15T01:46:01;6.40;95.30
13221;DHT22;6675;48.128;11.478;2024-02-15T01:48:31;6.10;95.30
13221;DHT22;6675;48.128;11.478;2024-02-15T01:50:57;6.10;95.60
13221;DHT22;6675;48.128;11.478;2024-02-15T01:53:24;5.70;96.10
13221;DHT22;6675;48.128;11.478;2024-02-15T01:55:52;6.70;96.90
13221;DHT22;6675;48.128;11.478;2024-02-15T01:58:19;5.10;97.10
13221;DHT22;6675;48.128;11.478;2024-02-15T02:00:45;6.80;98.00
13221;DHT22;6675;48.128;11.478;2024-02-15T02:03:13;6.10;97.40
13221;DHT22;6675;48.128;11.478;2024-02-15T02:05:40;6.10;97.40
13221;DHT22;6675;48.128;11.478;2024-02-15T02:08:06;5.60;97.70
13221;DHT22;6675;48.128;11.478;2024-02-15T02:10:36;6.00;98.60
13221;DHT22;6675;48.128;11.478;2024-02-15T02:13:02;6.00;99.20
13221;DHT22;6675;48.128;11.478;2024-02-15T02:15:28;6.50;99.80
13221;DHT22;6675;48.128;11.478;2024-02-15T02:17:57;5.80;99.50
13221;DHT22;6675;48.128;11.478;2024-02-15T02:20:25;7.10;99.90
13221;DHT22;6675;48.128;11.478;2024-02-15T02:22:50;7.10;99.90
13221;DHT22;6675;48.128;11.478;2024-02-15T02:25:20;5.40;99.40
13221;DHT22;6675;48.128;11.478;2024-02-15T02:27:47;5.70;98.90
13221;DHT22;6675;48.128;11.478;2024-02-15T02:30:15;6.20;99.60
13221;DHT22;6675;48.128;11.478;2024-02-15T02:32:42;6.20;99.10
13221;DHT22;6675;48.128;11.478;2024-02-15T02:35:08;5.80;98.90
13221;DHT22;6675;48.128;11.478;2024-02-15T02:37:37;5.80;99.00
13221;DHT22;6675;48.128;11.478;2024-02-15T02:40:06;6.10;98.40
13221;DHT22;6675;48.128;11.478;2024-02-15T02:43:09;6.30;98.60
13221;DHT22;6675;48.128;11.478;2024-02-15T02:45:28;6.20;99.00
13221;DHT22;6675;48.128;11.478;2024-02-15T02:47:54;6.20;98.60
13221;DHT22;6675;48.128;11.478;2024-02-15T02:50:21;6.50;99.60
13221;DHT22;6675;48.128;11.478;2024-02-15T02:52:47;6.10;98.80
13221;DHT22;6675;48.128;11.478;2024-02-15T02:55:14;6.00;98.50
13221;DHT22;6675;48.128;11.478;2024-02-15T02:57:39;6.30;98.90
13221;DHT22;6675;48.128;11.478;2024-02-15T03:00:06;6.30;98.70
13221;DHT22;6675;48.128;11.478;2024-02-15T03:02:41;6.50;99.10
13221;DHT22;6675;48.128;11.478;2024-02-15T03:05:07;5.30;98.60
13221;DHT22;6675;48.128;11.478;2024-02-15T03:07:34;6.50;98.10
13221;DHT22;6675;48.128;11.478;2024-02-15T03:10:04;5.90;98.50
13221;DHT22;6675;48.128;11.478;2024-02-15T03:12:30;7.20;98.80
13221;DHT22;6675;48.128;11.478;2024-02-15T03:14:56;5.70;98.00
13221;DHT22;6675;48.128;11.478;2024-02-15T03:17:25;7.30;99.00
13221;DHT22;6675;48.128;11.478;2024-02-15T03:19:51;6.40;98.10
13221;DHT22;6675;48.128;11.478;2024-02-15T03:24:45;6.50;98.60
13221;DHT22;6675;48.128;11.478;2024-02-15T03:27:11;5.80;97.40
13221;DHT22;6675;48.128;11.478;2024-02-15T03:29:37;6.00;98.10
13221;DHT22;6675;48.128;11.478;2024-02-15T03:32:03;6.30;97.60
13221;DHT22;6675;48.128;11.478;2024-02-15T03:34:30;7.30;98.40
13221;DHT22;6675;48.128;11.478;2024-02-15T03:36:56;6.30;97.50
13221;DHT22;6675;48.128;11.478;2024-02-15T03:42:44;5.50;97.30
13221;DHT22;6675;48.128;11.478;2024-02-15T03:47:36;7.20;97.80
13221;DHT22;6675;48.128;11.478;2024-02-15T03:50:03;6.60;97.40
13221;DHT22;6675;48.128;11.478;2024-02-15T03:52:30;6.90;97.60
13221;DHT22;6675;48.128;11.478;2024-02-15T03:54:56;6.30;96.90
13221;DHT22;6675;48.128;11.478;2024-02-15T03:57:25;6.30;97.40
13221;DHT22;6675;48.128;11.478;2024-02-15T03:59:51;6.30;97.00
13221;DHT22;6675;48.128;11.478;2024-02-15T04:02:18;5.90;97.60
13221;DHT22;6675;48.128;11.478;2024-02-15T04:04:44;5.90;97.00
13221;DHT22;6675;48.128;11.478;2024-02-15T04:07:18;6.20;98.40
13221;DHT22;6675;48.128;11.478;2024-02-15T04:09:48;6.10;98.10
13221;DHT22;6675;48.128;11.478;2024-02-15T04:12:14;5.40;98.80
13221;DHT22;6675;48.128;11.478;2024-02-15T04:14:43;5.80;98.40
13221;DHT22;6675;48.128;11.478;2024-02-15T04:17:10;6.10;99.00
13221;DHT22;6675;48.128;11.478;2024-02-15T04:19:36;6.20;99.20
13221;DHT22;6675;48.128;11.478;2024-02-15T04:22:02;5.20;99.30
13221;DHT22;6675;48.128;11.478;2024-02-15T04:26:59;6.20;99.20
13221;DHT22;6675;48.128;11.478;2024-02-15T04:29:25;7.30;99.90
13221;DHT22;6675;48.128;11.478;2024-02-15T04:31:51;5.30;99.30
13221;DHT22;6675;48.128;11.478;2024-02-15T04:34:17;6.20;99.20
13221;DHT22;6675;48.128;11.478;2024-02-15T04:36:47;6.70;99.90
13221;DHT22;6675;48.128;11.478;2024-02-15T04:39:19;6.30;99.40
13221;DHT22;6675;48.128;11.478;2024-02-15T04:41:52;6.30;99.00
13221;DHT22;6675;48.128;11.478;2024-02-15T04:44:19;6.40;99.50
13221;DHT22;6675;48.128;11.478;2024-02-15T04:46:46;6.10;99.90
13221;DHT22;6675;48.128;11.478;2024-02-15T04:49:13;6.40;99.90
13221;DHT22;6675;48.128;11.478;2024-02-15T04:51:39;5.50;99.60
13221;DHT22;6675;48.128;11.478;2024-02-15T04:54:10;6.50;99.90
13221;DHT22;6675;48.128;11.478;2024-02-15T04:56:39;6.50;99.40
13221;DHT22;6675;48.128;11.478;2024-02-15T04:59:05;6.10;99.70
13221;DHT22;6675;48.128;11.478;2024-02-15T05:01:34;6.50;99.90
13221;DHT22;6675;48.128;11.478;2024-02-15T05:04:00;6.00;99.20
13221;DHT22;6675;48.128;11.478;2024-02-15T05:06:31;6.20;99.10
13221;DHT22;6675;48.128;11.478;2024-02-15T05:08:57;5.90;98.90
13221;DHT22;6675;48.128;11.478;2024-02-15T05:11:25;6.40;98.60
13221;DHT22;6675;48.128;11.478;2024-02-15T05:13:51;5.40;98.50
13221;DHT22;6675;48.128;11.478;2024-02-15T05:16:17;6.20;98.20
13221;DHT22;6675;48.128;11.478;2024-02-15T05:18:43;6.10;97.80
13221;DHT22;6675;48.128;11.478;2024-02-15T05:21:11;6.50;97.90
13221;DHT22;6675;48.128;11.478;2024-02-15T05:23:37;7.20;98.80
13221;DHT22;6675;48.128;11.478;2024-02-15T05:26:03;6.50;98.80
13221;DHT22;6675;48.128;11.478;2024-02-15T05:28:29;7.20;99.00
13221;DHT22;6675;48.128;11.478;2024-02-15T05:31:11;6.20;98.00
13221;DHT22;6675;48.128;11.478;2024-02-15T05:33:40;5.80;98.90
13221;DHT22;6675;48.128;11.478;2024-02-15T05:36:12;6.90;98.70
13221;DHT22;6675;48.128;11.478;2024-02-15T05:38:39;5.80;98.50
13221;DHT22;6675;48.128;11.478;2024-02-15T05:41:05;6.00;97.80
13221;DHT22;6675;48.128;11.478;2024-02-15T05:43:33;5.70;97.60
13221;DHT22;6675;48.128;11.478;2024-02-15T05:45:59;6.10;98.80
13221;DHT22;6675;48.128;11.478;2024-02-15T05:48:26;5.60;97.90
13221;DHT22;6675;48.128;11.478;2024-02-15T05:50:54;6.50;98.80
13221;DHT22;6675;48.128;11.478;2024-02-15T05:53:20;5.80;98.00
13221;DHT22;6675;48.128;11.478;2024-02-15T05:55:46;6.00;98.20
13221;DHT22;6675;48.128;11.478;2024-02-15T05:58:11;6.10;97.60
13221;DHT22;6675;48.128;11.478;2024-02-15T06:00:39;4.90;97.20
13221;DHT22;6675;48.128;11.478;2024-02-15T06:03:06;4.40;97.10
13221;DHT22;6675;48.128;11.478;2024-02-15T06:05:32;5.30;96.50
13221;DHT22;6675;48.128;11.478;2024-02-15T06:07:58;5.30;96.50
13221;DHT22;6675;48.128;11.478;2024-02-15T06:10:24;6.50;96.80
13221;DHT22;6675;48.128;11.478;2024-02-15T06:12:51;5.30;96.00
13221;DHT22;6675;48.128;11.478;2024-02-15T06:15:16;6.10;96.20
13221;DHT22;6675;48.128;11.478;2024-02-15T06:17:42;5.60;95.50
13221;DHT22;6675;48.128;11.478;2024-02-15T06:20:11;5.10;95.30
13221;DHT22;6675;48.128;11.478;2024-02-15T06:22:40;5.30;95.30
13221;DHT22;6675;48.128;11.478;2024-02-15T06:25:06;5.50;96.00
13221;DHT22;6675;48.128;11.478;2024-02-15T06:27:31;5.20;95.90
13221;DHT22;6675;48.128;11.478;2024-02-15T06:29:58;4.80;94.80
13221;DHT22;6675;48.128;11.478;2024-02-15T06:32:42;5.00;94.80
13221;DHT22;6675;48.128;11.478;2024-02-15T06:35:26;4.90;94.60
13221;DHT22;6675;48.128;11.478;2024-02-15T06:38:10;5.00;94.90
13221;DHT22;6675;48.128;11.478;2024-02-15T06:40:54;5.60;95.90
13221;DHT22;6675;48.128;11.478;2024-02-15T06:43:20;4.40;95.80
13221;DHT22;6675;48.128;11.478;2024-02-15T06:45:46;4.90;96.10
13221;DHT22;6675;48.128;11.478;2024-02-15T06:48:12;3.60;95.60
13221;DHT22;6675;48.128;11.478;2024-02-15T06:50:38;5.80;96.20
13221;DHT22;6675;48.128;11.478;2024-02-15T06:53:05;4.70;95.70
13221;DHT22;6675;48.128;11.478;2024-02-15T06:55:30;4.70;95.00
13221;DHT22;6675;48.128;11.478;2024-02-15T06:57:56;5.00;94.80
13221;DHT22;6675;48.128;11.478;2024-02-15T07:00:22;5.20;96.20
13221;DHT22;6675;48.128;11.478;2024-02-15T07:02:47;5.30;95.50
13221;DHT22;6675;48.128;11.478;2024-02-15T07:05:14;5.00;95.70
13221;DHT22;6675;48.128;11.478;2024-02-15T07:07:39;4.80;96.30
13221;DHT22;6675;48.128;11.478;2024-02-15T07:10:11;5.30;95.80
13221;DHT22;6675;48.128;11.478;2024-02-15T07:12:36;5.20;95.70
13221;DHT22;6675;48.128;11.478;2024-02-15T07:15:04;5.50;96.00
13221;DHT22;6675;48.128;11.478;2024-02-15T07:17:32;5.50;96.10
13221;DHT22;6675;48.128;11.478;2024-02-15T07:19:57;5.70;96.20
13221;DHT22;6675;48.128;11.478;2024-02-15T07:22:23;5.40;96.00
13221;DHT22;6675;48.128;11.478;2024-02-15T07:24:48;6.40;96.00
13221;DHT22;6675;48.128;11.478;2024-02-15T07:27:14;5.30;94.90
13221;DHT22;6675;48.128;11.478;2024-02-15T07:29:39;5.20;94.80
13221;DHT22;6675;48.128;11.478;2024-02-15T07:32:06;5.60;95.30
13221;DHT22;6675;48.128;11.478;2024-02-15T07:34:32;6.80;96.70
13221;DHT22;6675;48.128;11.478;2024-02-15T07:37:02;5.80;95.80
13221;DHT22;6675;48.128;11.478;2024-02-15T07:39:28;5.90;96.10
13221;DHT22;6675;48.128;11.478;2024-02-15T07:41:54;6.10;96.10
13221;DHT22;6675;48.128;11.478;2024-02-15T07:44:20;6.10;96.20
13221;DHT22;6675;48.128;11.478;2024-02-15T07:46:47;5.90;95.90
13221;DHT22;6675;48.128;11.478;2024-02-15T07:49:13;6.20;96.40
13221;DHT22;6675;48.128;11.478;2024-02-15T07:51:38;6.60;96.00
13221;DHT22;6675;48.128;11.478;2024-02-15T07:54:04;6.30;96.30
13221;DHT22;6675;48.128;11.478;2024-02-15T07:56:30;6.80;96.50
13221;DHT22;6675;48.128;11.478;2024-02-15T07:58:55;7.10;96.80
13221;DHT22;6675;48.128;11.478;2024-02-15T08:01:21;7.20;96.60
13221;DHT22;6675;48.128;11.478;2024-02-15T08:03:47;6.90;96.60
13221;DHT22;6675;48.128;11.478;2024-02-15T08:06:14;6.80;96.90
13221;DHT22;6675;48.128;11.478;2024-02-15T08:08:42;7.40;97.80
13221;DHT22;6675;48.128;11.478;2024-02-15T08:11:08;8.30;99.90
13221;DHT22;6675;48.128;11.478;2024-02-15T08:13:46;7.70;99.90
13221;DHT22;6675;48.128;11.478;2024-02-15T08:16:20;9.50;99.90
13221;DHT22;6675;48.128;11.478;2024-02-15T08:18:48;8.90;99.90
13221;DHT22;6675;48.128;11.478;2024-02-15T08:21:14;10.30;99.90
13221;DHT22;6675;48.128;11.478;2024-02-15T08:23:40;10.70;99.90
13221;DHT22;6675;48.128;11.478;2024-02-15T08:26:06;11.30;99.90
13221;DHT22;6675;48.128;11.478;2024-02-15T08:28:31;12.50;99.90
13221;DHT22;6675;48.128;11.478;2024-02-15T08:30:57;13.40;25.90
13221;DHT22;6675;48.128;11.478;2024-02-15T08:33:24;14.60;16.40
13221;DHT22;6675;48.128;11.478;2024-02-15T08:35:50;16.30;7.90
13221;DHT22;6675;48.128;11.478;2024-02-15T08:38:16;17.30;1.00
13221;DHT22;6675;48.128;11.478;2024-02-15T08:40:42;19.30;1.00
13221;DHT22;6675;48.128;11.478;2024-02-15T08:43:09;18.90;1.00
13221;DHT22;6675;48.128;11.478;2024-02-15T08:45:35;20.20;1.00
13221;DHT22;6675;48.128;11.478;2024-02-15T08:48:00;21.00;1.00
13221;DHT22;6675;48.128;11.478;2024-02-15T08:50:29;21.80;1.00
13221;DHT22;6675;48.128;11.478;2024-02-15T08:52:55;21.80;1.00
13221;DHT22;6675;48.128;11.478;2024-02-15T08:55:21;22.00;1.00
13221;DHT22;6675;48.128;11.478;2024-02-15T08:57:52;22.30;1.00
13221;DHT22;6675;48.128;11.478;2024-02-15T09:00:18;23.30;1.00
13221;DHT22;6675;48.128;11.478;2024-02-15T09:02:44;23.30;1.00
13221;DHT22;6675;48.128;11.478;2024-02-15T09:05:10;24.10;1.00
13221;DHT22;6675;48.128;11.478;2024-02-15T09:07:42;24.60;1.00
13221;DHT22;6675;48.128;11.478;2024-02-15T09:10:11;25.00;1.00
13221;DHT22;6675;48.128;11.478;2024-02-15T09:12:40;25.30;1.00
13221;DHT22;6675;48.128;11.478;2024-02-15T09:15:09;25.70;1.00
13221;DHT22;6675;48.128;11.478;2024-02-15T09:17:37;26.30;1.00
13221;DHT22;6675;48.128;11.478;2024-02-15T09:20:07;26.70;1.00
13221;DHT22;6675;48.128;11.478;2024-02-15T09:22:34;27.10;1.00
13221;DHT22;6675;48.128;11.478;2024-02-15T09:25:02;27.30;1.00
13221;DHT22;6675;48.128;11.478;2024-02-15T09:27:27;27.20;1.00
13221;DHT22;6675;48.128;11.478;2024-02-15T09:29:53;26.70;1.00
13221;DHT22;6675;48.128;11.478;2024-02-15T09:32:18;27.00;1.00
13221;DHT22;6675;48.128;11.478;2024-02-15T09:34:44;27.60;1.00
13221;DHT22;6675;48.128;11.478;2024-02-15T09:37:10;28.30;1.00
13221;DHT22;6675;48.128;11.478;2024-02-15T09:39:37;28.60;1.00
13221;DHT22;6675;48.128;11.478;2024-02-15T09:42:03;29.10;1.00
13221;DHT22;6675;48.128;11.478;2024-02-15T09:44:29;29.20;1.00
13221;DHT22;6675;48.128;11.478;2024-02-15T09:47:05;29.30;1.00
13221;DHT22;6675;48.128;11.478;2024-02-15T09:49:33;29.80;1.00
13221;DHT22;6675;48.128;11.478;2024-02-15T09:52:00;30.30;1.00
13221;DHT22;6675;48.128;11.478;2024-02-15T09:54:28;30.60;1.00
13221;DHT22;6675;48.128;11.478;2024-02-15T09:56:56;31.00;1.00
13221;DHT22;6675;48.128;11.478;2024-02-15T09:59:22;31.40;1.00
13221;DHT22;6675;48.128;11.478;2024-02-15T10:01:48;31.60;1.00
13221;DHT22;6675;48.128;11.478;2024-02-15T10:04:15;32.00;1.00
13221;DHT22;6675;48.128;11.478;2024-02-15T10:06:42;32.80;1.00
13221;DHT22;6675;48.128;11.478;2024-02-15T10:09:27;33.50;1.00
13221;DHT22;6675;48.128;11.478;2024-02-15T10:11:55;34.60;1.00
13221;DHT22;6675;48.128;11.478;2024-02-15T10:14:22;34.60;1.00
13221;DHT22;6675;48.128;11.478;2024-02-15T10:16:47;34.80;1.00
13221;DHT22;6675;48.128;11.478;2024-02-15T10:19:13;34.70;1.00
13221;DHT22;6675;48.128;11.478;2024-02-15T10:21:40;35.20;1.00
13221;DHT22;6675;48.128;11.478;2024-02-15T10:24:07;35.40;1.00
13221;DHT22;6675;48.128;11.478;2024-02-15T10:26:35;34.90;1.00
13221;DHT22;6675;48.128;11.478;2024-02-15T10:29:09;34.60;1.00
13221;DHT22;6675;48.128;11.478;2024-02-15T10:31:35;34.30;1.00
13221;DHT22;6675;48.128;11.478;2024-02-15T10:34:07;34.40;1.00
13221;DHT22;6675;48.128;11.478;2024-02-15T10:36:34;34.80;1.00
13221;DHT22;6675;48.128;11.478;2024-02-15T10:39:16;34.90;1.00
13221;DHT22;6675;48.128;11.478;2024-02-15T10:41:46;34.50;1.00
13221;DHT22;6675;48.128;11.478;2024-02-15T10:46:43;34.80;1.00
13221;DHT22;6675;48.128;11.478;2024-02-15T10:49:09;34.60;1.00
13221;DHT22;6675;48.128;11.478;2024-02-15T10:51:36;35.00;1.00
13221;DHT22;6675;48.128;11.478;2024-02-15T10:54:06;35.10;1.00
13221;DHT22;6675;48.128;11.478;2024-02-15T10:56:36;34.70;1.00
13221;DHT22;6675;48.128;11.478;2024-02-15T10:59:17;34.70;1.00
13221;DHT22;6675;48.128;11.478;2024-02-15T11:01:46;35.40;1.00
13221;DHT22;6675;48.128;11.478;2024-02-15T11:04:18;35.70;1.00
13221;DHT22;6675;48.128;11.478;2024-02-15T11:06:47;34.70;1.00
13221;DHT22;6675;48.128;11.478;2024-02-15T11:09:16;34.90;1.00
13221;DHT22;6675;48.128;11.478;2024-02-15T11:11:42;34.20;1.00
13221;DHT22;6675;48.128;11.478;2024-02-15T11:14:29;34.10;1.00
13221;DHT22;6675;48.128;11.478;2024-02-15T11:17:01;33.80;1.00
13221;DHT22;6675;48.128;11.478;2024-02-15T11:22:12;30.60;1.00
13221;DHT22;6675;48.128;11.478;2024-02-15T11:24:50;29.10;1.00
13221;DHT22;6675;48.128;11.478;2024-02-15T11:27:27;28.60;1.00
13221;DHT22;6675;48.128;11.478;2024-02-15T11:35:04;29.50;1.00
13221;DHT22;6675;48.128;11.478;2024-02-15T11:40:24;32.50;1.00
13221;DHT22;6675;48.128;11.478;2024-02-15T11:42:57;32.50;1.00
13221;DHT22;6675;48.128;11.478;2024-02-15T11:45:27;32.30;1.00
13221;DHT22;6675;48.128;11.478;2024-02-15T11:47:58;31.10;1.00
13221;DHT22;6675;48.128;11.478;2024-02-15T11:50:27;29.90;1.00
13221;DHT22;6675;48.128;11.478;2024-02-15T11:53:02;29.90;1.00
13221;DHT22;6675;48.128;11.478;2024-02-15T11:55:35;29.20;1.00
13221;DHT22;6675;48.128;11.478;2024-02-15T11:58:02;29.20;1.00
13221;DHT22;6675;48.128;11.478;2024-02-15T12:00:50;29.70;1.00
13221;DHT22;6675;48.128;11.478;2024-02-15T12:03:54;29.90;1.00
13221;DHT22;6675;48.128;11.478;2024-02-15T12:06:39;30.70;1.00
13221;DHT22;6675;48.128;11.478;2024-02-15T12:09:24;31.80;1.00
13221;DHT22;6675;48.128;11.478;2024-02-15T12:12:11;32.40;1.00
13221;DHT22;6675;48.128;11.478;2024-02-15T12:15:02;33.00;1.00
13221;DHT22;6675;48.128;11.478;2024-02-15T12:17:46;32.40;1.00
13221;DHT22;6675;48.128;11.478;2024-02-15T12:20:30;29.20;1.00
13221;DHT22;6675;48.128;11.478;2024-02-15T12:22:57;29.10;1.00
13221;DHT22;6675;48.128;11.478;2024-02-15T12:25:26;29.60;1.00
13221;DHT22;6675;48.128;11.478;2024-02-15T12:27:54;29.70;1.00
13221;DHT22;6675;48.128;11.478;2024-02-15T12:30:20;28.60;1.00
13221;DHT22;6675;48.128;11.478;2024-02-15T12:32:47;28.50;1.00
13221;DHT22;6675;48.128;11.478;2024-02-15T12:35:20;27.90;1.00
13221;DHT22;6675;48.128;11.478;2024-02-15T12:37:46;27.20;1.00
13221;DHT22;6675;48.128;11.478;2024-02-15T12:42:46;25.70;1.00
13221;DHT22;6675;48.128;11.478;2024-02-15T12:45:19;24.40;1.00
13221;DHT22;6675;48.128;11.478;2024-02-15T12:47:51;23.30;1.00
13221;DHT22;6675;48.128;11.478;2024-02-15T12:50:27;21.90;1.00
13221;DHT22;6675;48.128;11.478;2024-02-15T12:52:53;22.00;1.00
13221;DHT22;6675;48.128;11.478;2024-02-15T12:55:22;21.70;1.00
13221;DHT22;6675;48.128;11.478;2024-02-15T12:57:51;21.20;1.00
13221;DHT22;6675;48.128;11.478;2024-02-15T13:00:24;20.90;1.00
13221;DHT22;6675;48.128;11.478;2024-02-15T13:03:03;20.90;1.00
13221;DHT22;6675;48.128;11.478;2024-02-15T13:05:29;20.60;1.00
13221;DHT22;6675;48.128;11.478;2024-02-15T13:07:56;20.80;1.00
13221;DHT22;6675;48.128;11.478;2024-02-15T13:10:28;21.10;1.00
13221;DHT22;6675;48.128;11.478;2024-02-15T13:12:55;20.90;1.00
13221;DHT22;6675;48.128;11.478;2024-02-15T13:15:22;21.50;1.00
13221;DHT22;6675;48.128;11.478;2024-02-15T13:17:55;21.30;1.00
13221;DHT22;6675;48.128;11.478;2024-02-15T13:20:21;21.10;1.00
13221;DHT22;6675;48.128;11.478;2024-02-15T13:22:57;20.80;1.00
13221;DHT22;6675;48.128;11.478;2024-02-15T13:25:25;20.50;1.00
13221;DHT22;6675;48.128;11.478;2024-02-15T13:27:51;20.00;1.00
13221;DHT22;6675;48.128;11.478;2024-02-15T13:30:17;19.80;1.00
13221;DHT22;6675;48.128;11.478;2024-02-15T13:32:48;20.00;1.00
13221;DHT22;6675;48.128;11.478;2024-02-15T13:35:16;20.10;1.00
13221;DHT22;6675;48.128;11.478;2024-02-15T13:37:55;20.40;1.00
13221;DHT22;6675;48.128;11.478;2024-02-15T13:40:24;20.80;1.00
13221;DHT22;6675;48.128;11.478;2024-02-15T13:42:51;20.80;1.00
13221;DHT22;6675;48.128;11.478;2024-02-15T13:45:29;21.00;1.00
13221;DHT22;6675;48.128;11.478;2024-02-15T13:47:57;20.60;1.00
13221;DHT22;6675;48.128;11.478;2024-02-15T13:50:24;20.30;1.00
13221;DHT22;6675;48.128;11.478;2024-02-15T13:52:50;20.40;1.00
13221;DHT22;6675;48.128;11.478;2024-02-15T13:55:19;20.40;1.00
13221;DHT22;6675;48.128;11.478;2024-02-15T13:57:46;20.00;1.00
13221;DHT22;6675;48.128;11.478;2024-02-15T14:02:43;19.50;1.00
13221;DHT22;6675;48.128;11.478;2024-02-15T14:05:12;19.30;1.00
13221;DHT22;6675;48.128;11.478;2024-02-15T14:07:38;19.40;1.00
13221;DHT22;6675;48.128;11.478;2024-02-15T14:10:07;19.40;1.00
13221;DHT22;6675;48.128;11.478;2024-02-15T14:12:33;19.20;1.00
13221;DHT22;6675;48.128;11.478;2024-02-15T14:15:00;19.20;1.00
13221;DHT22;6675;48.128;11.478;2024-02-15T14:17:25;19.90;1.00
13221;DHT22;6675;48.128;11.478;2024-02-15T14:19:53;19.60;1.00
13221;DHT22;6675;48.128;11.478;2024-02-15T14:22:19;19.70;1.00
13221;DHT22;6675;48.128;11.478;2024-02-15T14:24:49;19.70;1.00
13221;DHT22;6675;48.128;11.478;2024-02-15T14:27:15;19.50;1.00
13221;DHT22;6675;48.128;11.478;2024-02-15T14:29:40;19.40;1.00
13221;DHT22;6675;48.128;11.478;2024-02-15T14:32:26;19.20;1.00
13221;DHT22;6675;48.128;11.478;2024-02-15T14:35:10;19.00;1.00
13221;DHT22;6675;48.128;11.478;2024-02-15T14:37:36;18.80;1.00
13221;DHT22;6675;48.128;11.478;2024-02-15T14:40:02;18.80;1.00
13221;DHT22;6675;48.128;11.478;2024-02-15T14:42:29;18.50;1.00
13221;DHT22;6675;48.128;11.478;2024-02-15T14:44:54;18.50;1.00
13221;DHT22;6675;48.128;11.478;2024-02-15T14:47:20;18.40;1.00
13221;DHT22;6675;48.128;11.478;2024-02-15T14:49:46;18.00;1.00
13221;DHT22;6675;48.128;11.478;2024-02-15T14:52:11;17.70;1.00
13221;DHT22;6675;48.128;11.478;2024-02-15T14:54:38;17.50;1.00
13221;DHT22;6675;48.128;11.478;2024-02-15T14:57:04;17.30;1.00
13221;DHT22;6675;48.128;11.478;2024-02-15T14:59:30;17.20;1.00
13221;DHT22;6675;48.128;11.478;2024-02-15T15:01:55;17.40;1.00
13221;DHT22;6675;48.128;11.478;2024-02-15T15:04:23;17.30;1.00
13221;DHT22;6675;48.128;11.478;2024-02-15T15:06:48;17.30;1.00
13221;DHT22;6675;48.128;11.478;2024-02-15T15:09:32;17.30;1.00
13221;DHT22;6675;48.128;11.478;2024-02-15T15:12:16;16.80;1.00
13221;DHT22;6675;48.128;11.478;2024-02-15T15:15:08;16.90;1.00
13221;DHT22;6675;48.128;11.478;2024-02-15T15:17:37;16.70;1.00
13221;DHT22;6675;48.128;11.478;2024-02-15T15:20:04;16.50;1.00
13221;DHT22;6675;48.128;11.478;2024-02-15T15:22:34;16.40;1.00
13221;DHT22;6675;48.128;11.478;2024-02-15T15:25:00;16.30;1.00
13221;DHT22;6675;48.128;11.478;2024-02-15T15:27:27;16.30;1.00
13221;DHT22;6675;48.128;11.478;2024-02-15T15:29:53;16.10;1.00
13221;DHT22;6675;48.128;11.478;2024-02-15T15:32:19;16.10;1.00
13221;DHT22;6675;48.128;11.478;2024-02-15T15:34:45;16.00;1.00
13221;DHT22;6675;48.128;11.478;2024-02-15T15:37:10;15.80;1.00
13221;DHT22;6675;48.128;11.478;2024-02-15T15:39:37;15.80;1.00
13221;DHT22;6675;48.128;11.478;2024-02-15T15:42:03;15.70;1.00
13221;DHT22;6675;48.128;11.478;2024-02-15T15:44:33;15.50;1.00
13221;DHT22;6675;48.128;11.478;2024-02-15T15:46:59;15.60;1.00
13221;DHT22;6675;48.128;11.478;2024-02-15T15:49:25;15.10;1.00
13221;DHT22;6675;48.128;11.478;2024-02-15T15:51:51;15.30;1.00
13221;DHT22;6675;48.128;11.478;2024-02-15T15:54:18;15.10;1.00
13221;DHT22;6675;48.128;11.478;2024-02-15T15:56:45;15.20;1.00
13221;DHT22;6675;48.128;11.478;2024-02-15T15:59:11;14.80;1.00
13221;DHT22;6675;48.128;11.478;2024-02-15T16:01:36;14.80;1.00
13221;DHT22;6675;48.128;11.478;2024-02-15T16:04:03;14.90;1.00
13221;DHT22;6675;48.128;11.478;2024-02-15T16:06:29;14.60;1.00
13221;DHT22;6675;48.128;11.478;2024-02-15T16:08:55;14.30;1.00
13221;DHT22;6675;48.128;11.478;2024-02-15T16:11:20;14.30;1.00
13221;DHT22;6675;48.128;11.478;2024-02-15T16:13:46;14.10;1.00
13221;DHT22;6675;48.128;11.478;2024-02-15T16:16:13;14.10;1.00
13221;DHT22;6675;48.128;11.478;2024-02-15T16:18:39;14.00;1.00
13221;DHT22;6675;48.128;11.478;2024-02-15T16:21:05;13.60;1.00
13221;DHT22;6675;48.128;11.478;2024-02-15T16:23:31;13.50;1.00